Time;durP1;ratioP1;P1;durP2;ratioP2;P2;SDS_P1;SDS_P2;PMS_P1;PMS_P2;Temp;Humidity;BMP_temperature;BMP_pressure;BME280_temperature;BME280_humidity;BME280_pressure;Samples;Min_cycle;Max_cycle;Signal;HPM_P1;HPM_P2
2024/01/06 00:03:28;;;;;;;22.13;10.70;;;;;;;-1.35;100.00;99985.75;4973016;58;1140801;-80
2024/01/06 00:08:34;;;;;;;28.97;15.47;;;;;;;-1.39;100.00;99988.94;4913118;57;1140877;-80
2024/01/06 00:13:40;;;;;;;24.20;14.43;;;;;;;-1.37;100.00;99987.10;4944506;57;1140608;-79
2024/01/06 00:18:46;;;;;;;30.30;16.47;;;;;;;-1.35;100.00;99976.67;4961939;57;1140947;-80
2024/01/06 00:23:51;;;;;;;31.53;15.97;;;;;;;-1.38;100.00;99978.95;4973145;57;1140506;-80
2024/01/06 00:28:57;;;;;;;32.77;15.73;;;;;;;-1.38;100.00;99976.81;4977492;57;1141032;-80
2024/01/06 00:34:03;;;;;;;42.80;19.63;;;;;;;-1.42;100.00;99978.67;4940456;57;1141004;-80
2024/01/06 00:39:09;;;;;;;32.30;15.23;;;;;;;-1.43;100.00;99979.56;4976103;56;1141164;-80
2024/01/06 00:44:14;;;;;;;26.67;15.37;;;;;;;-1.40;100.00;99986.39;4958924;57;1140871;-80
2024/01/06 00:49:20;;;;;;;24.77;12.77;;;;;;;-1.42;100.00;99982.11;4933168;57;1141157;-80
2024/01/06 00:54:25;;;;;;;26.30;14.57;;;;;;;-1.40;100.00;99974.72;4923004;57;1140984;-79
2024/01/06 00:59:31;;;;;;;24.47;12.77;;;;;;;-1.43;100.00;99982.16;4934733;57;1140784;-80
2024/01/06 01:04:36;;;;;;;23.93;13.77;;;;;;;-1.43;100.00;99998.56;4957255;58;1140590;-80
2024/01/06 01:09:42;;;;;;;18.40;11.90;;;;;;;-1.39;100.00;100001.91;4921384;57;1141337;-80
2024/01/06 01:14:48;;;;;;;23.90;13.47;;;;;;;-1.39;100.00;100000.61;4928821;57;1143045;-80
2024/01/06 01:19:53;;;;;;;25.63;12.23;;;;;;;-1.44;100.00;100002.52;4982278;58;1142901;-80
2024/01/06 01:25:05;;;;;;;21.87;11.03;;;;;;;-1.45;100.00;100000.81;4932699;57;1143124;-79
2024/01/06 01:30:08;;;;;;;22.37;12.07;;;;;;;-1.45;100.00;100002.12;4926057;57;1143092;-79
2024/01/06 01:35:14;;;;;;;22.90;12.43;;;;;;;-1.51;100.00;99992.80;4975794;57;1143266;-79
2024/01/06 01:40:19;;;;;;;22.30;12.28;;;;;;;-1.49;100.00;100004.42;4914339;57;1140785;-79
2024/01/06 01:45:25;;;;;;;22.73;12.00;;;;;;;-1.46;100.00;100002.56;4868716;58;1142712;-80
2024/01/06 01:50:31;;;;;;;27.87;12.35;;;;;;;-1.44;100.00;100004.66;4861295;58;1143379;-80
2024/01/06 01:55:36;;;;;;;21.00;12.30;;;;;;;-1.44;100.00;100010.30;4882822;58;1142954;-80
2024/01/06 02:00:42;;;;;;;20.12;12.13;;;;;;;-1.43;100.00;100009.39;4872986;58;1143355;-79
2024/01/06 02:05:48;;;;;;;19.98;12.78;;;;;;;-1.44;100.00;100002.06;4848242;58;1143190;-80
2024/01/06 02:10:56;;;;;;;20.03;12.23;;;;;;;-1.45;100.00;100013.34;4878651;58;1143134;-80
2024/01/06 02:16:02;;;;;;;25.07;13.03;;;;;;;-1.46;100.00;100009.50;4856576;58;1142764;-80
2024/01/06 02:21:08;;;;;;;28.42;14.03;;;;;;;-1.48;100.00;100007.41;4830168;58;1142613;-79
2024/01/06 02:26:15;;;;;;;24.03;14.50;;;;;;;-1.49;100.00;100010.45;4885553;58;1142959;-79
2024/01/06 02:31:21;;;;;;;25.03;13.83;;;;;;;-1.48;100.00;100010.84;4830812;58;1143224;-79
2024/01/06 02:36:26;;;;;;;26.83;14.37;;;;;;;-1.50;100.00;100015.69;4865370;56;1143084;-80
2024/01/06 02:41:32;;;;;;;19.63;11.43;;;;;;;-1.53;100.00;100014.05;4882190;57;1143124;-80
2024/01/06 02:46:38;;;;;;;22.77;12.70;;;;;;;-1.52;100.00;100017.48;4907759;57;1142793;-80
2024/01/06 02:51:43;;;;;;;22.33;12.97;;;;;;;-1.57;100.00;100020.27;4952311;57;1142881;-79
2024/01/06 02:56:49;;;;;;;20.83;12.37;;;;;;;-1.57;100.00;100022.02;4931774;57;1143020;-80
2024/01/06 03:01:54;;;;;;;25.23;12.93;;;;;;;-1.57;100.00;100030.64;4938776;58;1142761;-80
2024/01/06 03:07:00;;;;;;;21.87;12.40;;;;;;;-1.57;100.00;100031.09;4835407;58;1143018;-80
2024/01/06 03:12:07;;;;;;;28.83;12.03;;;;;;;-1.55;100.00;100029.30;4888671;58;1142941;-80
2024/01/06 03:17:12;;;;;;;25.55;13.62;;;;;;;-1.57;100.00;100022.86;4894270;58;1142798;-79
2024/01/06 03:22:18;;;;;;;22.65;13.25;;;;;;;-1.64;100.00;100021.38;4894797;58;1142891;-80
2024/01/06 03:27:24;;;;;;;24.97;13.07;;;;;;;-1.61;100.00;100023.02;4904800;58;1143025;-80
2024/01/06 03:32:29;;;;;;;23.00;13.00;;;;;;;-1.61;100.00;100030.34;4940135;56;1142854;-79
2024/01/06 03:37:36;;;;;;;27.95;14.18;;;;;;;-1.65;100.00;100026.61;4921545;57;1143038;-79
2024/01/06 03:42:42;;;;;;;29.50;14.60;;;;;;;-1.67;100.00;100037.48;4944110;58;1143028;-80
2024/01/06 03:47:47;;;;;;;25.92;13.70;;;;;;;-1.69;100.00;100038.02;4896802;57;1143177;-80
2024/01/06 03:52:53;;;;;;;26.00;12.85;;;;;;;-1.71;100.00;100038.06;4949379;57;1142821;-80
2024/01/06 03:57:58;;;;;;;23.62;14.03;;;;;;;-1.71;100.00;100034.63;4958775;58;1142975;-80
2024/01/06 04:03:05;;;;;;;22.55;12.55;;;;;;;-1.72;100.00;100032.94;4954598;58;1142611;-80
2024/01/06 04:08:11;;;;;;;19.30;11.93;;;;;;;-1.75;100.00;100039.06;4960321;57;1142971;-79
2024/01/06 04:13:17;;;;;;;22.57;12.97;;;;;;;-1.76;100.00;100033.48;4969261;57;1142828;-80
2024/01/06 04:18:23;;;;;;;26.47;13.93;;;;;;;-1.81;100.00;100034.08;4967568;57;1142909;-80
2024/01/06 04:23:29;;;;;;;23.47;12.33;;;;;;;-1.79;100.00;100042.20;4956587;57;1142688;-80
2024/01/06 04:28:34;;;;;;;25.23;14.10;;;;;;;-1.78;100.00;100049.53;4960539;57;1142964;-80
2024/01/06 04:33:40;;;;;;;27.60;13.40;;;;;;;-1.81;100.00;100058.70;4946116;57;1143051;-80
2024/01/06 04:38:45;;;;;;;20.60;9.63;;;;;;;-1.84;100.00;100058.39;4911232;57;1143485;-79
2024/01/06 04:43:51;;;;;;;25.60;14.93;;;;;;;-1.90;100.00;100055.99;4987694;57;1140975;-79
2024/01/06 04:48:56;;;;;;;22.63;12.77;;;;;;;-1.95;100.00;100055.73;4944146;57;1143028;-79
2024/01/06 04:54:02;;;;;;;25.47;15.77;;;;;;;-1.92;100.00;100062.97;4894151;57;1142774;-79
2024/01/06 04:59:08;;;;;;;27.67;15.57;;;;;;;-1.92;100.00;100064.72;4858918;58;1143152;-80
2024/01/06 05:04:13;;;;;;;31.57;15.17;;;;;;;-1.92;100.00;100067.30;4877354;59;1142973;-79
2024/01/06 05:09:19;;;;;;;29.77;14.90;;;;;;;-1.91;100.00;100075.03;4890966;59;1142742;-79
2024/01/06 05:14:26;;;;;;;29.40;15.40;;;;;;;-1.90;100.00;100094.02;4887769;58;1143211;-79
2024/01/06 05:19:32;;;;;;;23.25;12.63;;;;;;;-1.92;100.00;100090.18;4878914;58;1142833;-80
2024/01/06 05:24:38;;;;;;;32.63;16.27;;;;;;;-1.92;100.00;100095.36;4932807;56;1142921;-79
2024/01/06 05:29:43;;;;;;;30.20;17.30;;;;;;;-1.92;100.00;100092.77;4955518;57;1143371;-80
2024/01/06 05:34:50;;;;;;;40.63;20.00;;;;;;;-1.94;100.00;100106.67;4938715;56;1142866;-79
2024/01/06 05:39:55;;;;;;;28.47;14.77;;;;;;;-1.93;100.00;100105.33;4965321;56;1142797;-79
2024/01/06 05:45:01;;;;;;;33.60;18.67;;;;;;;-1.96;100.00;100090.32;4988041;55;1142832;-80
2024/01/06 05:50:10;;;;;;;39.07;21.07;;;;;;;-1.96;100.00;100101.54;4965418;57;1142754;-79
2024/01/06 05:55:16;;;;;;;35.97;18.77;;;;;;;-1.97;100.00;100107.61;4965904;56;1143350;-79
2024/01/06 06:00:22;;;;;;;34.43;17.12;;;;;;;-1.95;100.00;100124.41;4989894;56;1142721;-79
2024/01/06 06:05:28;;;;;;;36.93;17.03;;;;;;;-1.93;100.00;100125.21;4954345;57;1142655;-79
2024/01/06 06:10:41;;;;;;;37.67;17.32;;;;;;;-1.98;100.00;100123.20;4915075;57;1143124;-79
2024/01/06 06:15:40;;;;;;;27.47;15.60;;;;;;;-1.97;100.00;100130.09;4931337;57;1142934;-79
2024/01/06 06:20:47;;;;;;;26.50;14.73;;;;;;;-1.94;100.00;100134.73;4990921;56;1142887;-79
2024/01/06 06:25:52;;;;;;;45.23;22.33;;;;;;;-1.97;100.00;100132.67;4962101;55;1143041;-80
2024/01/06 06:30:58;;;;;;;58.40;32.53;;;;;;;-2.02;100.00;100158.77;4961844;57;1142643;-79
2024/01/06 06:36:04;;;;;;;56.45;29.37;;;;;;;-2.02;100.00;100170.87;4981056;57;1142847;-79
2024/01/06 06:41:09;;;;;;;39.60;20.10;;;;;;;-2.02;100.00;100171.72;4966235;56;1142859;-79
2024/01/06 06:46:15;;;;;;;30.00;16.73;;;;;;;-1.99;100.00;100172.08;4934017;57;1187190;-79
2024/01/06 06:51:24;;;;;;;23.53;13.30;;;;;;;-2.00;100.00;100178.15;4854306;58;1216239;-80
2024/01/06 06:56:31;;;;;;;26.90;13.63;;;;;;;-1.98;100.00;100195.77;4900297;57;1143003;-80
2024/01/06 07:01:36;;;;;;;27.38;14.34;;;;;;;-1.95;100.00;100203.00;4911922;57;1142901;-79
2024/01/06 07:06:42;;;;;;;22.10;12.00;;;;;;;-1.98;100.00;100208.27;4915394;56;1142836;-80
2024/01/06 07:11:47;;;;;;;19.50;10.00;;;;;;;-1.96;100.00;100228.95;4817563;58;1142910;-80
2024/01/06 07:16:53;;;;;;;24.10;12.10;;;;;;;-1.93;100.00;100231.46;4937411;56;1189217;-80
2024/01/06 07:21:59;;;;;;;22.87;11.60;;;;;;;-1.94;100.00;100232.36;4975698;57;1143194;-80
2024/01/06 07:27:05;;;;;;;23.57;10.83;;;;;;;-1.87;100.00;100245.09;4947188;57;1143166;-80
2024/01/06 07:32:10;;;;;;;19.67;10.07;;;;;;;-1.83;100.00;100247.11;4943175;56;1236300;-80
2024/01/06 07:37:16;;;;;;;18.37;10.23;;;;;;;-1.83;100.00;100266.11;4948858;57;1143375;-80
2024/01/06 07:42:24;;;;;;;20.73;12.03;;;;;;;-1.88;100.00;100286.16;4929000;57;1181933;-80
2024/01/06 07:47:29;;;;;;;22.87;12.20;;;;;;;-1.89;100.00;100287.50;4850170;57;1181269;-80
2024/01/06 07:52:35;;;;;;;21.90;11.95;;;;;;;-1.88;100.00;100291.34;4843723;58;1247725;-80
2024/01/06 07:57:42;;;;;;;21.83;11.03;;;;;;;-1.87;100.00;100308.59;4928387;57;1240082;-80
2024/01/06 08:02:47;;;;;;;23.27;11.97;;;;;;;-1.90;100.00;100305.23;4866279;57;1248372;-80
2024/01/06 08:07:54;;;;;;;20.93;11.47;;;;;;;-1.90;100.00;100316.90;4859317;58;1143009;-80
2024/01/06 08:12:59;;;;;;;22.00;11.97;;;;;;;-1.89;100.00;100334.15;4952669;56;1247579;-80
2024/01/06 08:18:05;;;;;;;25.33;11.63;;;;;;;-1.91;100.00;100334.64;4967298;57;1260527;-80
2024/01/06 08:23:11;;;;;;;19.53;10.90;;;;;;;-1.94;100.00;100336.87;4976355;57;1259763;-80
2024/01/06 08:28:18;;;;;;;23.77;13.40;;;;;;;-1.93;100.00;100348.08;4993805;57;1143740;-80
2024/01/06 08:33:24;;;;;;;22.27;10.83;;;;;;;-1.94;100.00;100353.71;4940053;57;1259960;-79
2024/01/06 08:38:30;;;;;;;31.67;21.23;;;;;;;-1.95;100.00;100368.86;4948630;56;1257796;-80
2024/01/06 08:43:35;;;;;;;22.67;10.67;;;;;;;-1.94;100.00;100367.97;4906585;57;1259519;-74
2024/01/06 08:48:41;;;;;;;18.77;11.27;;;;;;;-1.90;100.00;100379.09;4924371;56;1184707;-83
2024/01/06 08:53:46;;;;;;;18.60;10.00;;;;;;;-1.91;100.00;100379.55;4843046;58;1143106;-81
2024/01/06 08:58:52;;;;;;;17.13;9.67;;;;;;;-1.92;100.00;100381.73;4906300;58;1143313;-81
2024/01/06 09:03:58;;;;;;;25.77;14.60;;;;;;;-1.87;100.00;100391.53;4915017;58;1140928;-81
2024/01/06 09:09:03;;;;;;;20.27;9.97;;;;;;;-1.88;100.00;100385.09;4904680;56;1143090;-81
2024/01/06 09:14:10;;;;;;;22.07;11.13;;;;;;;-1.84;100.00;100400.52;4952030;58;1140878;-83
2024/01/06 09:19:16;;;;;;;26.50;15.43;;;;;;;-1.82;100.00;100394.81;4958838;57;1173368;-79
2024/01/06 09:24:22;;;;;;;12.83;8.27;;;;;;;-1.81;100.00;100392.63;4924137;57;1213997;-83
2024/01/06 09:29:28;;;;;;;15.90;8.50;;;;;;;-1.83;100.00;100411.27;4846964;58;1203403;-81
2024/01/06 09:34:33;;;;;;;11.00;6.97;;;;;;;-1.80;100.00;100416.81;4891746;57;1141110;-81
2024/01/06 09:39:39;;;;;;;15.15;7.28;;;;;;;-1.78;100.00;100408.10;4935107;57;1140935;-82
2024/01/06 09:44:45;;;;;;;12.82;7.12;;;;;;;-1.80;100.00;100411.62;4958687;56;1199764;-76
2024/01/06 09:49:51;;;;;;;12.77;7.50;;;;;;;-1.77;100.00;100420.17;4931585;55;1140921;-80
2024/01/06 09:54:58;;;;;;;12.53;7.70;;;;;;;-1.71;100.00;100420.45;4989150;55;1140929;-80
2024/01/06 10:00:05;;;;;;;119.67;42.67;;;;;;;-1.69;100.00;100423.00;4967068;57;1141488;-79
2024/01/06 10:05:14;;;;;;;21.00;10.60;;;;;;;-1.69;100.00;100426.89;4952143;57;1144915;-79
2024/01/06 10:10:20;;;;;;;13.77;6.60;;;;;;;-1.65;100.00;100420.70;4963494;57;1142793;-78
2024/01/06 10:15:26;;;;;;;9.40;5.78;;;;;;;-1.61;100.00;100422.32;5022988;56;1141012;-76
2024/01/06 10:20:31;;;;;;;12.73;6.63;;;;;;;-1.62;100.00;100424.50;4928455;58;1139048;-79
2024/01/06 10:25:39;;;;;;;8.63;3.60;;;;;;;-1.60;100.00;100426.16;4956442;56;1141157;-79
2024/01/06 10:30:45;;;;;;;7.15;5.30;;;;;;;-1.63;100.00;100423.66;4962838;57;1139024;-78
2024/01/06 10:35:51;;;;;;;8.33;4.35;;;;;;;-1.63;100.00;100426.70;4960155;57;1138925;-76
2024/01/06 10:41:09;;;;;;;11.73;5.60;;;;;;;-1.62;100.00;100435.73;4934504;57;1139226;-76
2024/01/06 10:46:15;;;;;;;11.27;6.13;;;;;;;-1.63;100.00;100430.14;4834791;58;1140823;-77
2024/01/06 10:51:23;;;;;;;11.80;6.60;;;;;;;-1.63;100.00;100430.59;4845312;58;1140997;-80
2024/01/06 10:56:30;;;;;;;9.60;6.00;;;;;;;-1.71;100.00;100407.94;4915518;58;1141148;-80
2024/01/06 11:01:37;;;;;;;12.70;6.07;;;;;;;-1.55;100.00;100415.22;4929296;56;1138761;-79
2024/01/06 11:06:43;;;;;;;12.68;6.37;;;;;;;-1.49;100.00;100408.53;4965105;57;1140921;-77
2024/01/06 11:11:50;;;;;;;13.10;7.30;;;;;;;-1.48;100.00;100414.57;4967216;57;1141325;-77
2024/01/06 11:16:56;;;;;;;10.30;6.45;;;;;;;-1.45;100.00;100409.30;4970975;57;1141221;-79
2024/01/06 11:22:28;;;;;;;11.10;5.07;;;;;;;-1.46;100.00;100406.30;4996076;57;1140537;-77
2024/01/06 11:27:35;;;;;;;9.97;4.87;;;;;;;-1.50;100.00;100421.55;4960645;57;1141005;-80
2024/01/06 11:32:46;;;;;;;9.83;5.12;;;;;;;-1.51;100.00;100424.59;4837243;58;1139144;-78
2024/01/06 11:37:54;;;;;;;10.30;4.73;;;;;;;-1.48;100.00;100423.20;4942613;57;1139096;-79
2024/01/06 11:43:16;;;;;;;16.25;9.05;;;;;;;-1.50;100.00;100419.80;4949615;57;1141384;-78
2024/01/06 11:48:25;;;;;;;81.80;50.43;;;;;;;-1.48;100.00;100418.46;4924412;57;1140623;-80
2024/01/06 11:53:30;;;;;;;10.05;5.83;;;;;;;-1.48;100.00;100413.27;4955533;57;1142751;-81
2024/01/06 11:58:38;;;;;;;10.20;4.13;;;;;;;-1.45;100.00;100422.27;4912261;57;1140526;-77
2024/01/06 12:03:43;;;;;;;9.10;4.53;;;;;;;-1.46;100.00;100413.64;4894315;57;1140694;-79
2024/01/06 12:08:49;;;;;;;8.08;3.90;;;;;;;-1.50;100.00;100412.02;4968550;57;1138874;-75
2024/01/06 12:13:54;;;;;;;13.30;4.77;;;;;;;-1.46;100.00;100417.97;4966185;57;1138632;-78
2024/01/06 12:19:02;;;;;;;8.83;4.57;;;;;;;-1.44;100.00;100420.93;4958015;57;1141125;-82
2024/01/06 12:24:21;;;;;;;7.58;4.78;;;;;;;-1.35;100.00;100426.72;5041374;58;1139442;-82
2024/01/06 12:29:26;;;;;;;17.63;6.40;;;;;;;-1.34;100.00;100431.86;4970232;58;1138630;-76
2024/01/06 12:34:32;;;;;;;10.70;4.30;;;;;;;-1.38;100.00;100432.02;4982311;57;1140935;-80
2024/01/06 12:39:38;;;;;;;7.05;4.20;;;;;;;-1.40;100.00;100438.55;4962774;56;1141092;-83
2024/01/06 12:44:43;;;;;;;7.80;4.27;;;;;;;-1.47;100.00;100451.28;4960445;57;1138994;-79
2024/01/06 12:49:49;;;;;;;7.23;3.43;;;;;;;-1.46;100.00;100450.39;4920680;57;1138827;-78
2024/01/06 12:54:55;;;;;;;7.93;3.13;;;;;;;-1.46;100.00;100456.43;4951701;56;1138793;-80
2024/01/06 13:00:01;;;;;;;11.57;4.10;;;;;;;-1.47;100.00;100444.80;4931423;56;1138864;-81
2024/01/06 13:05:08;;;;;;;4.90;2.87;;;;;;;-1.46;100.00;100464.21;4950312;56;1140986;-79
2024/01/06 13:10:14;;;;;;;7.87;4.20;;;;;;;-1.45;100.00;100459.43;4937088;57;1139185;-80
2024/01/06 13:15:19;;;;;;;8.27;3.93;;;;;;;-1.46;100.00;100480.22;4969197;57;1138740;-80
2024/01/06 13:20:25;;;;;;;8.60;4.97;;;;;;;-1.43;100.00;100492.66;4974904;57;1138601;-78
2024/01/06 13:25:31;;;;;;;11.30;4.57;;;;;;;-1.41;100.00;100496.51;5055337;57;1138826;-80
2024/01/06 13:30:36;;;;;;;133.43;52.93;;;;;;;-1.38;100.00;100508.10;5009479;56;1141010;-81
2024/01/06 13:35:42;;;;;;;19.87;9.40;;;;;;;-1.43;100.00;100510.81;4986151;56;1145964;-76
2024/01/06 13:40:47;;;;;;;7.40;3.63;;;;;;;-1.45;100.00;100520.38;4978941;56;1140703;-76
2024/01/06 13:45:53;;;;;;;12.20;4.70;;;;;;;-1.47;100.00;100507.90;4931773;57;1138831;-80
2024/01/06 13:50:59;;;;;;;11.77;4.97;;;;;;;-1.49;100.00;100510.98;4949064;57;1141130;-80
2024/01/06 13:56:06;;;;;;;8.73;5.20;;;;;;;-1.49;100.00;100525.69;4908302;57;1141181;-80
2024/01/06 14:01:11;;;;;;;12.67;5.77;;;;;;;-1.46;100.00;100525.16;4945894;55;1138838;-77
2024/01/06 14:06:17;;;;;;;12.13;5.00;;;;;;;-1.46;100.00;100532.09;4998412;57;1140955;-76
2024/01/06 14:11:23;;;;;;;14.07;7.50;;;;;;;-1.53;100.00;100539.66;4956749;57;1140818;-79
2024/01/06 14:16:29;;;;;;;10.43;5.20;;;;;;;-1.56;100.00;100550.11;4945922;56;1140611;-79
2024/01/06 14:21:34;;;;;;;11.53;5.43;;;;;;;-1.63;100.00;100565.42;4932978;57;1140804;-76
2024/01/06 14:26:42;;;;;;;9.53;4.27;;;;;;;-1.67;100.00;100565.09;4943607;55;1140798;-79
2024/01/06 14:31:48;;;;;;;18.60;9.23;;;;;;;-1.69;100.00;100571.64;4900956;57;1138728;-77
2024/01/06 14:36:55;;;;;;;19.03;6.97;;;;;;;-1.67;100.00;100580.64;4900502;57;1141170;-81
2024/01/06 14:42:01;;;;;;;17.27;9.37;;;;;;;-1.68;100.00;100582.38;4870889;58;1140649;-78
2024/01/06 14:47:07;;;;;;;12.87;6.27;;;;;;;-1.68;100.00;100592.76;4948296;57;1141054;-76
2024/01/06 14:52:12;;;;;;;14.98;6.97;;;;;;;-1.73;100.00;100598.97;4964014;57;1140631;-81
2024/01/06 14:57:18;;;;;;;18.23;8.00;;;;;;;-1.75;100.00;100600.75;4915315;57;1141259;-77
2024/01/06 15:02:24;;;;;;;18.40;7.23;;;;;;;-1.79;100.00;100608.60;4892297;56;1141087;-76
2024/01/06 15:07:31;;;;;;;10.82;5.92;;;;;;;-1.83;100.00;100610.86;4955898;56;1141096;-78
2024/01/06 15:12:36;;;;;;;19.27;8.23;;;;;;;-1.83;100.00;100616.04;4934368;56;1140995;-76
2024/01/06 15:17:42;;;;;;;17.37;6.93;;;;;;;-1.82;100.00;100624.23;4903904;57;1141091;-77
2024/01/06 15:22:48;;;;;;;16.67;7.13;;;;;;;-1.79;100.00;100623.30;4889036;57;1140964;-77
2024/01/06 15:27:53;;;;;;;14.93;6.57;;;;;;;-1.84;100.00;100638.14;4962252;57;1140931;-79
2024/01/06 15:32:59;;;;;;;12.60;6.93;;;;;;;-1.88;100.00;100649.02;4907418;57;1140931;-76
2024/01/06 15:38:05;;;;;;;14.70;6.83;;;;;;;-1.90;100.00;100650.80;4923591;57;1145129;-77
2024/01/06 15:43:11;;;;;;;17.05;8.75;;;;;;;-1.93;100.00;100664.27;4927147;57;1141108;-77
2024/01/06 15:48:16;;;;;;;40.52;12.25;;;;;;;-1.94;100.00;100666.01;4947232;57;1141123;-80
2024/01/06 15:53:22;;;;;;;37.93;14.65;;;;;;;-1.96;100.00;100663.04;4960806;56;1142951;-77
2024/01/06 15:58:27;;;;;;;21.80;8.03;;;;;;;-1.98;100.00;100654.45;4931042;55;1142878;-78
2024/01/06 16:03:33;;;;;;;28.00;12.97;;;;;;;-1.96;100.00;100661.30;4945119;57;1140845;-81
2024/01/06 16:08:39;;;;;;;12.60;5.50;;;;;;;-1.91;100.00;100667.23;4934939;57;1143093;-81
2024/01/06 16:13:45;;;;;;;21.70;10.40;;;;;;;-1.97;100.00;100658.30;4977694;57;1141023;-83
2024/01/06 16:18:50;;;;;;;22.58;8.53;;;;;;;-2.02;100.00;100657.58;4952031;57;1143152;-78
2024/01/06 16:23:56;;;;;;;19.97;8.13;;;;;;;-2.01;100.00;100664.91;4966297;58;1140918;-78
2024/01/06 16:29:02;;;;;;;88.27;27.17;;;;;;;-2.01;100.00;100671.39;4886346;57;1140757;-79
2024/01/06 16:34:07;;;;;;;37.43;14.60;;;;;;;-2.05;100.00;100663.27;4887321;57;1142957;-80
2024/01/06 16:39:13;;;;;;;18.40;9.17;;;;;;;-2.04;100.00;100656.77;4937423;56;1152583;-81
2024/01/06 16:44:19;;;;;;;21.80;7.40;;;;;;;-2.03;100.00;100677.91;4840567;57;1141794;-81
2024/01/06 16:49:27;;;;;;;16.87;6.70;;;;;;;-2.02;100.00;100677.46;4913283;57;1140989;-81
2024/01/06 16:54:32;;;;;;;14.00;6.47;;;;;;;-2.07;100.00;100687.92;4907863;58;1141644;-81
2024/01/06 16:59:38;;;;;;;18.20;6.60;;;;;;;-2.07;100.00;100681.89;4935592;58;1141274;-79
2024/01/06 17:04:44;;;;;;;21.43;8.10;;;;;;;-2.08;100.00;100688.81;4959954;58;1140990;-83
2024/01/06 17:09:50;;;;;;;17.13;6.63;;;;;;;-2.13;100.00;100697.12;4960768;58;1141022;-81
2024/01/06 17:14:58;;;;;;;18.40;7.23;;;;;;;-2.13;100.00;100697.12;4941670;57;1141035;-81
2024/01/06 17:20:05;;;;;;;22.52;7.53;;;;;;;-2.10;100.00;100701.38;4967862;56;1141166;-81
2024/01/06 17:25:12;;;;;;;15.87;7.37;;;;;;;-2.13;100.00;100705.75;4953339;57;1140744;-80
2024/01/06 17:30:19;;;;;;;16.27;7.13;;;;;;;-2.14;100.00;100726.53;4988202;57;1140899;-81
2024/01/06 17:35:24;;;;;;;17.67;7.20;;;;;;;-2.14;100.00;100731.24;4924557;57;1140756;-81
2024/01/06 17:40:30;;;;;;;26.23;9.63;;;;;;;-2.11;100.00;100735.51;5003577;58;1140417;-81
2024/01/06 17:45:36;;;;;;;45.37;15.50;;;;;;;-2.10;100.00;100740.25;5014913;57;1140962;-81
2024/01/06 17:50:42;;;;;;;79.30;30.87;;;;;;;-2.09;100.00;100748.44;5033810;58;1142913;-81
2024/01/06 17:55:48;;;;;;;30.30;12.00;;;;;;;-2.12;100.00;100742.88;4917848;58;1143231;-81
2024/01/06 18:00:53;;;;;;;18.60;7.53;;;;;;;-2.10;100.00;100756.66;4942975;58;1179952;-81
2024/01/06 18:05:59;;;;;;;13.23;5.77;;;;;;;-2.13;100.00;100761.45;4952066;57;1140804;-81
2024/01/06 18:11:04;;;;;;;12.37;5.40;;;;;;;-2.15;100.00;100761.95;4900593;59;1141648;-79
2024/01/06 18:16:14;;;;;;;18.20;7.60;;;;;;;-2.13;100.00;100765.78;4829865;60;1140821;-80
2024/01/06 18:21:20;;;;;;;18.42;4.97;;;;;;;-2.17;100.00;100763.72;5026768;57;1141061;-81
2024/01/06 18:26:25;;;;;;;662.80;213.63;;;;;;;-2.20;100.00;100766.81;5041845;58;1140565;-81
2024/01/06 18:31:31;;;;;;;184.43;55.27;;;;;;;-2.22;100.00;100763.40;4794816;59;1147102;-81
2024/01/06 18:36:39;;;;;;;52.33;25.80;;;;;;;-2.20;100.00;100778.03;5027807;57;1145193;-79
2024/01/06 18:41:44;;;;;;;12.90;4.80;;;;;;;-2.18;100.00;100785.34;5026562;58;1142742;-79
2024/01/06 18:46:50;;;;;;;12.67;6.17;;;;;;;-2.18;100.00;100774.97;4940384;58;1141007;-79
2024/01/06 18:51:55;;;;;;;19.53;6.93;;;;;;;-2.16;100.00;100793.93;4835068;60;1140797;-81
2024/01/06 18:57:01;;;;;;;14.07;5.77;;;;;;;-2.15;100.00;100803.85;4879126;57;1141150;-81
2024/01/06 19:02:07;;;;;;;8.70;4.40;;;;;;;-2.15;100.00;100790.90;4732159;61;1140665;-78
2024/01/06 19:07:13;;;;;;;17.07;6.03;;;;;;;-2.16;100.00;100801.70;4786310;60;1138954;-78
2024/01/06 19:12:18;;;;;;;13.50;6.37;;;;;;;-2.14;100.00;100795.20;4815690;60;1141040;-79
2024/01/06 19:17:24;;;;;;;14.17;5.40;;;;;;;-2.20;100.00;100811.72;4835005;59;1140457;-80
2024/01/06 19:22:30;;;;;;;9.83;4.87;;;;;;;-2.18;100.00;100815.12;4850458;61;1140581;-79
2024/01/06 19:27:38;;;;;;;13.45;5.55;;;;;;;-2.13;100.00;100826.67;4852951;59;1138673;-79
2024/01/06 19:32:46;;;;;;;12.87;5.57;;;;;;;-2.14;100.00;100830.17;4860862;60;1140801;-78
2024/01/06 19:37:51;;;;;;;12.47;4.67;;;;;;;-2.17;100.00;100832.38;4818552;59;1140756;-81
2024/01/06 19:43:03;;;;;;;13.87;5.73;;;;;;;-2.21;100.00;100831.17;4990593;57;1140564;-80
2024/01/06 19:48:09;;;;;;;12.00;4.00;;;;;;;-2.20;100.00;100836.33;5043383;57;1140635;-77
2024/01/06 19:53:15;;;;;;;11.57;5.60;;;;;;;-2.20;100.00;100837.63;4906918;57;1140995;-79
2024/01/06 19:58:21;;;;;;;16.00;5.40;;;;;;;-2.24;100.00;100839.85;4890764;58;1141009;-77
2024/01/06 20:03:26;;;;;;;13.33;5.73;;;;;;;-2.28;100.00;100845.11;5110371;56;1141026;-80
2024/01/06 20:08:35;;;;;;;32.70;10.30;;;;;;;-2.31;100.00;100848.64;5028944;58;1140860;-81
2024/01/06 20:13:41;;;;;;;22.93;9.68;;;;;;;-2.36;100.00;100852.20;4978798;58;1142771;-77
2024/01/06 20:18:47;;;;;;;49.83;18.20;;;;;;;-2.39;100.00;100855.70;4996355;58;1140819;-79
2024/01/06 20:23:52;;;;;;;51.30;18.80;;;;;;;-2.39;100.00;100858.28;4904168;57;1142964;-78
2024/01/06 20:28:58;;;;;;;28.00;11.87;;;;;;;-2.38;100.00;100857.84;4857685;58;1143186;-79
2024/01/06 20:34:04;;;;;;;20.97;8.87;;;;;;;-2.40;100.00;100859.61;4936230;58;1142743;-79
2024/01/06 20:39:11;;;;;;;15.83;8.38;;;;;;;-2.44;100.00;100863.16;4935550;57;1140685;-79
2024/01/06 20:44:17;;;;;;;38.23;13.43;;;;;;;-2.50;100.00;100868.86;5015852;56;1140641;-79
2024/01/06 20:49:24;;;;;;;37.67;14.43;;;;;;;-2.56;100.00;100866.37;4948039;58;1142930;-81
2024/01/06 20:54:30;;;;;;;28.20;14.13;;;;;;;-2.60;100.00;100872.51;4970743;57;1142651;-80
2024/01/06 20:59:35;;;;;;;20.03;9.53;;;;;;;-2.70;100.00;100879.15;4931570;57;1142702;-78
2024/01/06 21:04:41;;;;;;;17.73;9.30;;;;;;;-2.70;100.00;100879.15;4975114;59;1141092;-81
2024/01/06 21:09:46;;;;;;;8.57;4.77;;;;;;;-2.75;100.00;100880.52;4983685;59;1140437;-79
2024/01/06 21:14:52;;;;;;;10.53;4.43;;;;;;;-2.81;100.00;100880.64;4928684;59;1138624;-80
2024/01/06 21:20:00;;;;;;;6.10;3.30;;;;;;;-2.85;100.00;100890.63;4934389;58;1140953;-79
2024/01/06 21:25:06;;;;;;;9.63;3.60;;;;;;;-2.89;100.00;100893.70;4990544;58;1138885;-80
2024/01/06 21:30:12;;;;;;;7.73;3.30;;;;;;;-2.95;100.00;100893.81;4952107;59;1138589;-80
2024/01/06 21:35:17;;;;;;;8.17;3.00;;;;;;;-2.96;100.00;100908.07;5025824;57;1138923;-79
2024/01/06 21:40:24;;;;;;;7.83;3.13;;;;;;;-3.01;100.00;100905.98;4915204;58;1139304;-78
2024/01/06 21:45:31;;;;;;;9.67;3.10;;;;;;;-3.10;100.00;100905.70;4935976;58;1138783;-78
2024/01/06 21:50:36;;;;;;;7.27;3.23;;;;;;;-3.14;100.00;100914.38;4949527;58;1138834;-78
2024/01/06 21:55:44;;;;;;;8.87;3.60;;;;;;;-3.21;100.00;100920.08;4945199;58;1138796;-78
2024/01/06 22:00:50;;;;;;;6.80;2.80;;;;;;;-3.23;100.00;100923.59;4968221;57;1138577;-78
2024/01/06 22:05:56;;;;;;;6.37;2.97;;;;;;;-3.23;100.00;100917.12;4927479;57;1138593;-78
2024/01/06 22:11:01;;;;;;;12.53;4.57;;;;;;;-3.24;100.00;100925.31;4912965;58;1138713;-78
2024/01/06 22:16:07;;;;;;;7.37;3.63;;;;;;;-3.22;100.00;100933.06;5027373;57;1140969;-78
2024/01/06 22:21:13;;;;;;;6.90;3.37;;;;;;;-3.20;100.00;100945.06;4875050;58;1138704;-78
2024/01/06 22:26:19;;;;;;;8.70;3.30;;;;;;;-3.22;100.00;100939.52;4948625;57;1138664;-79
2024/01/06 22:31:25;;;;;;;7.50;4.27;;;;;;;-3.25;100.00;100940.42;4935478;57;1138729;-79
2024/01/06 22:36:31;;;;;;;11.27;4.97;;;;;;;-3.21;100.00;100948.52;5021240;57;1138605;-78